AFR476 LFPG-SBSV
Flight info
| Callsign | AFR476 |
|---|---|
| Flight time | N/A |
| Altitude | 33000 |
| Route | LGL UT190 GODIX UN872 DIDAK DCT AKEMO DCT RIVAK/M083F350 UN460 SIVIR DCT BERUX/N0478F350 DCT KOPAS/M083F340 DCT BANAL DCT 37N020W/M083F360 32N025W 30N026W 25N029W DCT ULTEM/N0486F360 DCT BIKOM/N0483F380 DCT MOVGA UZ51 MOTBU DCT JOBER UN741 TERIN UZ19 FROTI |
| Aircraft | B77L/H-SDE1E2E3FGHIJ2J3J4J5M1RWXY/LB1D1 |
Departure
| Time | 2026-05-09 07:56 |
|---|---|
| Airport | Charles de Gaulle International Airport (LFPG) |
Arrival
| Time | N/A |
|---|---|
| Airport | Deputado Luiz Eduardo Magalhães International Airport (SBSV) |
| Time | Latitude | Longitude | Altitude | Speed | Heading |
|---|---|---|---|---|---|
| 2026-05-09 07:34 | 49.00157 | 2.57812 | 405 ft | 0 kts | 355° |
| 2026-05-09 07:46 | 49.00156 | 2.57812 | 405 ft | 1 kts | 355° |
| 2026-05-09 07:46 | 49.00142 | 2.57813 | 405 ft | 3 kts | 355° |
| 2026-05-09 07:46 | 49.00122 | 2.57816 | 405 ft | 3 kts | 355° |
| 2026-05-09 07:47 | 49.00103 | 2.57818 | 405 ft | 2 kts | 355° |
| 2026-05-09 07:47 | 49.00087 | 2.57820 | 405 ft | 3 kts | 342° |
| 2026-05-09 07:47 | 49.00073 | 2.57829 | 405 ft | 3 kts | 310° |
| 2026-05-09 07:47 | 49.00065 | 2.57848 | 405 ft | 3 kts | 276° |
| 2026-05-09 07:48 | 49.00065 | 2.57878 | 405 ft | 3 kts | 264° |
| 2026-05-09 07:48 | 49.00066 | 2.57898 | 405 ft | 1 kts | 265° |
| 2026-05-09 07:48 | 49.00067 | 2.57903 | 405 ft | 0 kts | 265° |
| 2026-05-09 07:50 | 49.00066 | 2.57891 | 405 ft | 5 kts | 265° |
| 2026-05-09 07:51 | 49.00060 | 2.57790 | 405 ft | 13 kts | 263° |
| 2026-05-09 07:51 | 49.00006 | 2.57747 | 405 ft | 10 kts | 169° |
| 2026-05-09 07:51 | 48.99970 | 2.57682 | 405 ft | 9 kts | 264° |
| 2026-05-09 07:51 | 48.99963 | 2.57573 | 405 ft | 14 kts | 264° |
| 2026-05-09 07:52 | 48.99953 | 2.57352 | 405 ft | 26 kts | 266° |
| 2026-05-09 07:52 | 48.99941 | 2.57091 | 405 ft | 23 kts | 263° |
| 2026-05-09 07:52 | 48.99926 | 2.56852 | 405 ft | 22 kts | 266° |
| 2026-05-09 07:52 | 48.99913 | 2.56623 | 405 ft | 21 kts | 264° |
| 2026-05-09 07:53 | 48.99900 | 2.56404 | 405 ft | 20 kts | 265° |
| 2026-05-09 07:53 | 48.99886 | 2.56277 | 405 ft | 3 kts | 220° |
| 2026-05-09 07:53 | 48.99863 | 2.56271 | 405 ft | 4 kts | 184° |
| 2026-05-09 07:53 | 48.99835 | 2.56270 | 405 ft | 5 kts | 179° |
| 2026-05-09 07:54 | 48.99790 | 2.56274 | 405 ft | 8 kts | 175° |
| 2026-05-09 07:54 | 48.99725 | 2.56286 | 405 ft | 10 kts | 172° |
| 2026-05-09 07:54 | 48.99658 | 2.56300 | 405 ft | 9 kts | 172° |
| 2026-05-09 07:54 | 48.99610 | 2.56351 | 405 ft | 9 kts | 92° |
| 2026-05-09 07:55 | 48.99620 | 2.56490 | 405 ft | 24 kts | 84° |
| 2026-05-09 07:55 | 48.99654 | 2.57057 | 406 ft | 86 kts | 86° |
| 2026-05-09 07:55 | 48.99724 | 2.58271 | 406 ft | 143 kts | 84° |
| 2026-05-09 07:55 | 48.99816 | 2.59990 | 595 ft | 172 kts | 86° |
| 2026-05-09 07:56 | 48.99904 | 2.61841 | 1165 ft | 178 kts | 86° |
| 2026-05-09 07:56 | 48.99989 | 2.63773 | 1730 ft | 188 kts | 85° |
| 2026-05-09 07:56 | 49.00097 | 2.65790 | 2337 ft | 194 kts | 85° |
| 2026-05-09 07:56 | 49.00221 | 2.67882 | 2735 ft | 209 kts | 85° |
| 2026-05-09 07:57 | 49.00362 | 2.70188 | 3103 ft | 226 kts | 85° |
| 2026-05-09 07:57 | 49.00295 | 2.72644 | 3504 ft | 242 kts | 104° |
| 2026-05-09 07:57 | 48.99430 | 2.74913 | 3968 ft | 258 kts | 133° |
| 2026-05-09 07:57 | 48.97893 | 2.76324 | 4804 ft | 260 kts | 157° |
| 2026-05-09 07:58 | 48.96152 | 2.77006 | 5718 ft | 259 kts | 164° |
| 2026-05-09 07:58 | 48.94376 | 2.77618 | 6417 ft | 265 kts | 165° |
| 2026-05-09 07:58 | 48.92524 | 2.77926 | 7015 ft | 273 kts | 183° |
| 2026-05-09 07:58 | 48.90712 | 2.77055 | 7745 ft | 276 kts | 205° |
| 2026-05-09 07:59 | 48.89076 | 2.75519 | 8462 ft | 279 kts | 211° |
| 2026-05-09 07:59 | 48.87440 | 2.73914 | 9184 ft | 281 kts | 211° |
| 2026-05-09 07:59 | 48.85783 | 2.72301 | 9892 ft | 284 kts | 213° |
| 2026-05-09 07:59 | 48.84339 | 2.70240 | 10415 ft | 292 kts | 233° |
| 2026-05-09 08:00 | 48.83439 | 2.67391 | 10786 ft | 309 kts | 251° |
| 2026-05-09 08:00 | 48.82995 | 2.64130 | 11190 ft | 324 kts | 259° |
| 2026-05-09 08:00 | 48.82595 | 2.60677 | 11620 ft | 340 kts | 259° |
| 2026-05-09 08:00 | 48.82181 | 2.57062 | 12100 ft | 355 kts | 259° |
| 2026-05-09 08:01 | 48.81742 | 2.53305 | 12712 ft | 366 kts | 259° |
| 2026-05-09 08:01 | 48.81287 | 2.49448 | 13411 ft | 375 kts | 259° |
| 2026-05-09 08:01 | 48.80823 | 2.45524 | 14198 ft | 380 kts | 259° |
| 2026-05-09 08:01 | 48.80374 | 2.41533 | 14967 ft | 386 kts | 261° |
| 2026-05-09 08:02 | 48.80118 | 2.37519 | 15745 ft | 390 kts | 265° |
| 2026-05-09 08:02 | 48.79999 | 2.33382 | 16525 ft | 394 kts | 267° |
| 2026-05-09 08:02 | 48.79969 | 2.29197 | 17288 ft | 399 kts | 268° |
| 2026-05-09 08:02 | 48.79995 | 2.24971 | 18018 ft | 403 kts | 269° |
| 2026-05-09 08:03 | 48.80034 | 2.20688 | 18693 ft | 408 kts | 269° |
| 2026-05-09 08:03 | 48.80059 | 2.16355 | 19348 ft | 413 kts | 269° |
| 2026-05-09 08:03 | 48.80069 | 2.11963 | 19990 ft | 418 kts | 269° |
| 2026-05-09 08:03 | 48.80070 | 2.07528 | 20605 ft | 424 kts | 269° |
| 2026-05-09 08:04 | 48.80064 | 2.03036 | 21213 ft | 428 kts | 269° |
| 2026-05-09 08:04 | 48.80052 | 1.98494 | 21827 ft | 433 kts | 269° |
| 2026-05-09 08:04 | 48.80040 | 1.93891 | 22350 ft | 440 kts | 269° |
| 2026-05-09 08:04 | 48.80023 | 1.89221 | 22927 ft | 444 kts | 269° |
| 2026-05-09 08:05 | 48.80019 | 1.84502 | 23504 ft | 449 kts | 269° |
| 2026-05-09 08:05 | 48.80045 | 1.79738 | 24056 ft | 454 kts | 269° |
| 2026-05-09 08:05 | 48.80060 | 1.74990 | 24617 ft | 457 kts | 269° |
| 2026-05-09 08:05 | 48.80061 | 1.70145 | 25181 ft | 461 kts | 269° |
| 2026-05-09 08:06 | 48.80052 | 1.65262 | 25720 ft | 465 kts | 269° |
| 2026-05-09 08:06 | 48.80043 | 1.61935 | 26088 ft | 468 kts | 269° |
| 2026-05-09 08:06 | 48.80017 | 1.55361 | 26784 ft | 472 kts | 268° |
| 2026-05-09 08:06 | 48.80002 | 1.52055 | 27124 ft | 475 kts | 268° |
| 2026-05-09 08:07 | 48.79977 | 1.47029 | 27624 ft | 478 kts | 268° |
| 2026-05-09 08:07 | 48.79950 | 1.41953 | 28127 ft | 482 kts | 268° |
| 2026-05-09 08:07 | 48.79919 | 1.36850 | 28582 ft | 486 kts | 268° |
| 2026-05-09 08:07 | 48.79887 | 1.31708 | 29029 ft | 489 kts | 268° |
| 2026-05-09 08:08 | 48.79851 | 1.26532 | 29497 ft | 492 kts | 268° |
| 2026-05-09 08:08 | 48.79813 | 1.21325 | 29908 ft | 495 kts | 268° |
| 2026-05-09 08:08 | 48.79772 | 1.16089 | 30397 ft | 496 kts | 268° |
| 2026-05-09 08:08 | 48.79730 | 1.10880 | 31011 ft | 493 kts | 268° |
| 2026-05-09 08:09 | 48.79685 | 1.05686 | 31577 ft | 491 kts | 268° |
| 2026-05-09 08:09 | 48.79643 | 1.00516 | 32079 ft | 491 kts | 268° |
| 2026-05-09 08:09 | 48.79631 | 0.95349 | 32595 ft | 489 kts | 268° |
| 2026-05-09 08:09 | 48.79595 | 0.90249 | 32978 ft | 489 kts | 268° |
| 2026-05-09 08:10 | 48.79537 | 0.85090 | 33051 ft | 489 kts | 268° |
| 2026-05-09 08:10 | 48.79401 | 0.74779 | 33048 ft | 488 kts | 267° |
| 2026-05-09 08:11 | 48.79259 | 0.64472 | 33047 ft | 489 kts | 267° |
| 2026-05-09 08:11 | 48.78339 | 0.54363 | 33043 ft | 485 kts | 247° |
| 2026-05-09 08:11 | 48.76769 | 0.49859 | 33047 ft | 483 kts | 233° |
| 2026-05-09 08:12 | 48.72092 | 0.42647 | 33044 ft | 479 kts | 217° |